sensor_id;sensor_type;location;lat;lon;timestamp;temperature;humidity
15481;DHT22;7842;50.904;6.670;2022-12-18T00:01:34;-4.90;99.90
15481;DHT22;7842;50.904;6.670;2022-12-18T00:04:02;-5.00;99.90
15481;DHT22;7842;50.904;6.670;2022-12-18T00:06:29;-5.00;99.90
15481;DHT22;7842;50.904;6.670;2022-12-18T00:08:56;-5.00;99.90
15481;DHT22;7842;50.904;6.670;2022-12-18T00:11:25;-5.00;99.90
15481;DHT22;7842;50.904;6.670;2022-12-18T00:13:53;-5.00;99.90
15481;DHT22;7842;50.904;6.670;2022-12-18T00:16:21;-5.00;99.90
15481;DHT22;7842;50.904;6.670;2022-12-18T00:18:49;-5.00;99.90
15481;DHT22;7842;50.904;6.670;2022-12-18T00:21:16;-5.00;99.90
15481;DHT22;7842;50.904;6.670;2022-12-18T00:23:43;-5.00;99.90
15481;DHT22;7842;50.904;6.670;2022-12-18T00:26:17;-5.00;99.90
15481;DHT22;7842;50.904;6.670;2022-12-18T00:28:44;-5.00;99.90
15481;DHT22;7842;50.904;6.670;2022-12-18T00:31:12;-5.00;99.90
15481;DHT22;7842;50.904;6.670;2022-12-18T00:33:39;-5.00;99.90
15481;DHT22;7842;50.904;6.670;2022-12-18T00:36:11;-5.00;99.90
15481;DHT22;7842;50.904;6.670;2022-12-18T00:38:38;-5.00;99.90
15481;DHT22;7842;50.904;6.670;2022-12-18T00:41:04;-5.00;99.90
15481;DHT22;7842;50.904;6.670;2022-12-18T00:43:30;-5.10;99.90
15481;DHT22;7842;50.904;6.670;2022-12-18T00:45:55;-5.10;99.90
15481;DHT22;7842;50.904;6.670;2022-12-18T00:48:21;-5.10;99.90
15481;DHT22;7842;50.904;6.670;2022-12-18T00:50:50;-5.10;99.90
15481;DHT22;7842;50.904;6.670;2022-12-18T00:53:16;-5.10;99.90
15481;DHT22;7842;50.904;6.670;2022-12-18T00:55:42;-4.90;99.90
15481;DHT22;7842;50.904;6.670;2022-12-18T00:58:09;-5.00;99.90
15481;DHT22;7842;50.904;6.670;2022-12-18T01:00:35;-5.00;99.90
15481;DHT22;7842;50.904;6.670;2022-12-18T01:03:01;-5.00;99.90
15481;DHT22;7842;50.904;6.670;2022-12-18T01:05:27;-5.00;99.90
15481;DHT22;7842;50.904;6.670;2022-12-18T01:07:52;-5.10;99.90
15481;DHT22;7842;50.904;6.670;2022-12-18T01:10:18;-5.10;99.90
15481;DHT22;7842;50.904;6.670;2022-12-18T01:12:43;-5.10;99.90
15481;DHT22;7842;50.904;6.670;2022-12-18T01:15:10;-5.10;99.90
15481;DHT22;7842;50.904;6.670;2022-12-18T01:17:37;-5.10;99.90
15481;DHT22;7842;50.904;6.670;2022-12-18T01:20:03;-5.10;99.90
15481;DHT22;7842;50.904;6.670;2022-12-18T01:22:29;-5.20;99.90
15481;DHT22;7842;50.904;6.670;2022-12-18T01:24:55;-5.20;99.90
15481;DHT22;7842;50.904;6.670;2022-12-18T01:27:20;-5.20;99.90
15481;DHT22;7842;50.904;6.670;2022-12-18T01:29:46;-5.20;99.90
15481;DHT22;7842;50.904;6.670;2022-12-18T01:32:11;-5.20;99.90
15481;DHT22;7842;50.904;6.670;2022-12-18T01:34:37;-5.00;99.90
15481;DHT22;7842;50.904;6.670;2022-12-18T01:37:04;-5.10;99.90
15481;DHT22;7842;50.904;6.670;2022-12-18T01:39:30;-5.10;99.90
15481;DHT22;7842;50.904;6.670;2022-12-18T01:41:57;-5.10;99.90
15481;DHT22;7842;50.904;6.670;2022-12-18T01:47:27;-5.00;99.90
15481;DHT22;7842;50.904;6.670;2022-12-18T01:49:54;-5.00;99.90
15481;DHT22;7842;50.904;6.670;2022-12-18T01:52:22;-5.20;99.90
15481;DHT22;7842;50.904;6.670;2022-12-18T01:54:49;-5.00;99.90
15481;DHT22;7842;50.904;6.670;2022-12-18T01:57:15;-5.00;99.90
15481;DHT22;7842;50.904;6.670;2022-12-18T01:59:42;-5.00;99.90
15481;DHT22;7842;50.904;6.670;2022-12-18T02:02:11;-5.00;99.90
15481;DHT22;7842;50.904;6.670;2022-12-18T02:04:36;-5.00;99.90
15481;DHT22;7842;50.904;6.670;2022-12-18T02:09:51;-5.00;99.90
15481;DHT22;7842;50.904;6.670;2022-12-18T02:12:23;-5.10;99.90
15481;DHT22;7842;50.904;6.670;2022-12-18T02:15:02;-5.10;99.90
15481;DHT22;7842;50.904;6.670;2022-12-18T02:17:44;-5.00;99.90
15481;DHT22;7842;50.904;6.670;2022-12-18T02:20:36;-5.00;99.90
15481;DHT22;7842;50.904;6.670;2022-12-18T02:23:06;-5.10;99.90
15481;DHT22;7842;50.904;6.670;2022-12-18T02:26:13;-5.10;99.90
15481;DHT22;7842;50.904;6.670;2022-12-18T02:28:51;-5.10;99.90
15481;DHT22;7842;50.904;6.670;2022-12-18T02:31:24;-5.10;99.90
15481;DHT22;7842;50.904;6.670;2022-12-18T02:33:53;-5.10;99.90
15481;DHT22;7842;50.904;6.670;2022-12-18T02:36:20;-5.10;99.90
15481;DHT22;7842;50.904;6.670;2022-12-18T02:38:47;-5.10;99.90
15481;DHT22;7842;50.904;6.670;2022-12-18T02:41:14;-5.10;99.90
15481;DHT22;7842;50.904;6.670;2022-12-18T02:43:50;-5.10;99.90
15481;DHT22;7842;50.904;6.670;2022-12-18T02:46:30;-5.10;99.90
15481;DHT22;7842;50.904;6.670;2022-12-18T02:49:04;-5.10;99.90
15481;DHT22;7842;50.904;6.670;2022-12-18T02:52:02;-5.10;99.90
15481;DHT22;7842;50.904;6.670;2022-12-18T02:57:10;-5.10;99.90
15481;DHT22;7842;50.904;6.670;2022-12-18T02:59:45;-4.50;99.90
15481;DHT22;7842;50.904;6.670;2022-12-18T03:05:24;-5.20;99.90
15481;DHT22;7842;50.904;6.670;2022-12-18T03:08:08;-5.20;99.90
15481;DHT22;7842;50.904;6.670;2022-12-18T03:13:52;-5.20;99.90
15481;DHT22;7842;50.904;6.670;2022-12-18T03:16:27;-5.20;99.90
15481;DHT22;7842;50.904;6.670;2022-12-18T03:19:15;-5.10;99.90
15481;DHT22;7842;50.904;6.670;2022-12-18T03:21:52;-5.00;99.90
15481;DHT22;7842;50.904;6.670;2022-12-18T03:24:19;-5.00;99.90
15481;DHT22;7842;50.904;6.670;2022-12-18T03:26:48;-5.00;99.90
15481;DHT22;7842;50.904;6.670;2022-12-18T03:30:00;-5.00;99.90
15481;DHT22;7842;50.904;6.670;2022-12-18T03:32:26;-5.00;99.90
15481;DHT22;7842;50.904;6.670;2022-12-18T03:34:56;-5.00;99.90
15481;DHT22;7842;50.904;6.670;2022-12-18T03:37:22;-4.90;99.90
15481;DHT22;7842;50.904;6.670;2022-12-18T03:39:48;-4.90;99.90
15481;DHT22;7842;50.904;6.670;2022-12-18T03:50:15;-4.90;99.90
15481;DHT22;7842;50.904;6.670;2022-12-18T03:52:54;-4.80;99.90
15481;DHT22;7842;50.904;6.670;2022-12-18T03:55:22;-4.90;99.90
15481;DHT22;7842;50.904;6.670;2022-12-18T03:57:52;-4.90;99.90
15481;DHT22;7842;50.904;6.670;2022-12-18T04:00:18;-4.80;99.90
15481;DHT22;7842;50.904;6.670;2022-12-18T04:02:51;-4.80;99.90
15481;DHT22;7842;50.904;6.670;2022-12-18T04:05:18;-4.80;99.90
15481;DHT22;7842;50.904;6.670;2022-12-18T04:07:46;-4.80;99.90
15481;DHT22;7842;50.904;6.670;2022-12-18T04:10:13;-4.80;99.90
15481;DHT22;7842;50.904;6.670;2022-12-18T04:12:39;-4.80;99.90
15481;DHT22;7842;50.904;6.670;2022-12-18T04:15:06;-4.80;99.90
15481;DHT22;7842;50.904;6.670;2022-12-18T04:17:32;-4.80;99.90
15481;DHT22;7842;50.904;6.670;2022-12-18T04:19:57;-4.80;99.90
15481;DHT22;7842;50.904;6.670;2022-12-18T04:22:23;-4.80;99.90
15481;DHT22;7842;50.904;6.670;2022-12-18T04:24:49;-4.80;99.90
15481;DHT22;7842;50.904;6.670;2022-12-18T04:27:14;-4.80;99.90
15481;DHT22;7842;50.904;6.670;2022-12-18T04:29:40;-4.80;99.90
15481;DHT22;7842;50.904;6.670;2022-12-18T04:32:06;-4.80;99.90
15481;DHT22;7842;50.904;6.670;2022-12-18T04:34:32;-4.80;99.90
15481;DHT22;7842;50.904;6.670;2022-12-18T04:36:57;-4.80;99.90
15481;DHT22;7842;50.904;6.670;2022-12-18T04:39:23;-4.80;99.90
15481;DHT22;7842;50.904;6.670;2022-12-18T04:41:48;-4.80;99.90
15481;DHT22;7842;50.904;6.670;2022-12-18T04:44:14;-4.80;99.90
15481;DHT22;7842;50.904;6.670;2022-12-18T04:46:40;-4.70;99.90
15481;DHT22;7842;50.904;6.670;2022-12-18T04:49:05;-4.80;99.90
15481;DHT22;7842;50.904;6.670;2022-12-18T04:51:31;-4.80;99.90
15481;DHT22;7842;50.904;6.670;2022-12-18T04:53:56;-4.80;99.90
15481;DHT22;7842;50.904;6.670;2022-12-18T04:56:22;-4.80;99.90
15481;DHT22;7842;50.904;6.670;2022-12-18T04:58:48;-4.80;99.90
15481;DHT22;7842;50.904;6.670;2022-12-18T05:01:16;-4.80;99.90
15481;DHT22;7842;50.904;6.670;2022-12-18T05:03:42;-4.80;99.90
15481;DHT22;7842;50.904;6.670;2022-12-18T05:06:08;-4.70;99.90
15481;DHT22;7842;50.904;6.670;2022-12-18T05:08:34;-4.70;99.90
15481;DHT22;7842;50.904;6.670;2022-12-18T05:13:30;-4.70;99.90
15481;DHT22;7842;50.904;6.670;2022-12-18T05:15:56;-4.70;99.90
15481;DHT22;7842;50.904;6.670;2022-12-18T05:18:25;-4.60;99.90
15481;DHT22;7842;50.904;6.670;2022-12-18T05:20:51;-4.60;99.90
15481;DHT22;7842;50.904;6.670;2022-12-18T05:23:18;-5.30;99.90
15481;DHT22;7842;50.904;6.670;2022-12-18T05:25:56;-4.50;99.90
15481;DHT22;7842;50.904;6.670;2022-12-18T05:28:24;-4.50;99.90
15481;DHT22;7842;50.904;6.670;2022-12-18T05:30:52;-4.50;99.90
15481;DHT22;7842;50.904;6.670;2022-12-18T05:33:19;-4.50;99.90
15481;DHT22;7842;50.904;6.670;2022-12-18T05:35:53;-4.50;99.90
15481;DHT22;7842;50.904;6.670;2022-12-18T05:38:20;-4.50;99.90
15481;DHT22;7842;50.904;6.670;2022-12-18T05:40:48;-4.50;99.90
15481;DHT22;7842;50.904;6.670;2022-12-18T05:43:14;-4.50;99.90
15481;DHT22;7842;50.904;6.670;2022-12-18T05:45:40;-4.60;99.90
15481;DHT22;7842;50.904;6.670;2022-12-18T05:48:06;-4.50;99.90
15481;DHT22;7842;50.904;6.670;2022-12-18T05:50:39;-4.60;99.90
15481;DHT22;7842;50.904;6.670;2022-12-18T05:53:05;-4.60;99.90
15481;DHT22;7842;50.904;6.670;2022-12-18T05:55:36;-4.50;99.90
15481;DHT22;7842;50.904;6.670;2022-12-18T05:58:03;-4.50;99.90
15481;DHT22;7842;50.904;6.670;2022-12-18T06:00:30;-4.50;99.90
15481;DHT22;7842;50.904;6.670;2022-12-18T06:02:57;-4.50;99.90
15481;DHT22;7842;50.904;6.670;2022-12-18T06:05:23;-4.50;99.90
15481;DHT22;7842;50.904;6.670;2022-12-18T06:07:48;-4.50;99.90
15481;DHT22;7842;50.904;6.670;2022-12-18T06:10:14;-4.50;99.90
15481;DHT22;7842;50.904;6.670;2022-12-18T06:12:40;-4.20;99.90
15481;DHT22;7842;50.904;6.670;2022-12-18T06:15:06;-4.50;99.90
15481;DHT22;7842;50.904;6.670;2022-12-18T06:17:34;-4.50;99.90
15481;DHT22;7842;50.904;6.670;2022-12-18T06:20:00;-4.40;99.90
15481;DHT22;7842;50.904;6.670;2022-12-18T06:22:26;-4.40;99.90
15481;DHT22;7842;50.904;6.670;2022-12-18T06:24:52;-4.50;99.90
15481;DHT22;7842;50.904;6.670;2022-12-18T06:27:17;-4.40;99.90
15481;DHT22;7842;50.904;6.670;2022-12-18T06:29:43;-4.50;99.90
15481;DHT22;7842;50.904;6.670;2022-12-18T06:32:09;-4.50;99.90
15481;DHT22;7842;50.904;6.670;2022-12-18T06:34:36;-4.50;99.90
15481;DHT22;7842;50.904;6.670;2022-12-18T06:37:02;-4.50;99.90
15481;DHT22;7842;50.904;6.670;2022-12-18T06:39:28;-4.50;99.90
15481;DHT22;7842;50.904;6.670;2022-12-18T06:41:53;-4.50;99.90
15481;DHT22;7842;50.904;6.670;2022-12-18T06:44:19;-4.50;99.90
15481;DHT22;7842;50.904;6.670;2022-12-18T06:46:45;-4.60;99.90
15481;DHT22;7842;50.904;6.670;2022-12-18T06:49:11;-4.60;99.90
15481;DHT22;7842;50.904;6.670;2022-12-18T06:51:36;-4.60;99.90
15481;DHT22;7842;50.904;6.670;2022-12-18T06:54:02;-4.50;99.90
15481;DHT22;7842;50.904;6.670;2022-12-18T06:56:29;-4.60;99.90
15481;DHT22;7842;50.904;6.670;2022-12-18T06:58:54;-4.50;99.90
15481;DHT22;7842;50.904;6.670;2022-12-18T07:01:20;-4.50;99.90
15481;DHT22;7842;50.904;6.670;2022-12-18T07:03:46;-4.50;99.90
15481;DHT22;7842;50.904;6.670;2022-12-18T07:06:17;-4.50;99.90
15481;DHT22;7842;50.904;6.670;2022-12-18T07:08:44;-4.50;99.90
15481;DHT22;7842;50.904;6.670;2022-12-18T07:11:10;-4.50;99.90
15481;DHT22;7842;50.904;6.670;2022-12-18T07:13:36;-4.50;99.90
15481;DHT22;7842;50.904;6.670;2022-12-18T07:16:21;-4.50;99.90
15481;DHT22;7842;50.904;6.670;2022-12-18T07:18:47;-4.50;99.90
15481;DHT22;7842;50.904;6.670;2022-12-18T07:21:15;-4.50;99.90
15481;DHT22;7842;50.904;6.670;2022-12-18T07:23:41;-4.50;99.90
15481;DHT22;7842;50.904;6.670;2022-12-18T07:26:09;-4.50;99.90
15481;DHT22;7842;50.904;6.670;2022-12-18T07:28:36;-4.50;99.90
15481;DHT22;7842;50.904;6.670;2022-12-18T07:31:07;-4.40;99.90
15481;DHT22;7842;50.904;6.670;2022-12-18T07:33:33;-4.50;99.90
15481;DHT22;7842;50.904;6.670;2022-12-18T07:36:01;-4.20;99.90
15481;DHT22;7842;50.904;6.670;2022-12-18T07:38:27;-4.40;99.90
15481;DHT22;7842;50.904;6.670;2022-12-18T07:40:52;-4.40;99.90
15481;DHT22;7842;50.904;6.670;2022-12-18T07:43:18;-4.40;99.90
15481;DHT22;7842;50.904;6.670;2022-12-18T07:45:44;-4.40;99.90
15481;DHT22;7842;50.904;6.670;2022-12-18T07:48:10;-4.40;99.90
15481;DHT22;7842;50.904;6.670;2022-12-18T07:50:36;-4.40;99.90
15481;DHT22;7842;50.904;6.670;2022-12-18T07:53:01;-4.30;99.90
15481;DHT22;7842;50.904;6.670;2022-12-18T07:55:30;-4.30;99.90
15481;DHT22;7842;50.904;6.670;2022-12-18T07:57:55;-4.30;99.90
15481;DHT22;7842;50.904;6.670;2022-12-18T08:00:21;-4.30;99.90
15481;DHT22;7842;50.904;6.670;2022-12-18T08:02:47;-4.30;99.90
15481;DHT22;7842;50.904;6.670;2022-12-18T08:05:12;-4.20;99.90
15481;DHT22;7842;50.904;6.670;2022-12-18T08:07:39;-3.90;99.90
15481;DHT22;7842;50.904;6.670;2022-12-18T08:10:05;-4.20;99.90
15481;DHT22;7842;50.904;6.670;2022-12-18T08:12:30;-4.20;99.90
15481;DHT22;7842;50.904;6.670;2022-12-18T08:14:56;-4.20;99.90
15481;DHT22;7842;50.904;6.670;2022-12-18T08:17:22;-4.10;99.90
15481;DHT22;7842;50.904;6.670;2022-12-18T08:19:47;-4.00;99.90
15481;DHT22;7842;50.904;6.670;2022-12-18T08:22:13;-4.00;99.90
15481;DHT22;7842;50.904;6.670;2022-12-18T08:24:38;-4.00;99.90
15481;DHT22;7842;50.904;6.670;2022-12-18T08:27:04;-3.90;99.90
15481;DHT22;7842;50.904;6.670;2022-12-18T08:29:30;-3.90;99.90
15481;DHT22;7842;50.904;6.670;2022-12-18T08:31:56;-3.90;99.90
15481;DHT22;7842;50.904;6.670;2022-12-18T08:34:21;-3.80;99.90
15481;DHT22;7842;50.904;6.670;2022-12-18T08:36:47;-3.80;99.90
15481;DHT22;7842;50.904;6.670;2022-12-18T08:39:12;-3.70;99.90
15481;DHT22;7842;50.904;6.670;2022-12-18T08:41:38;-3.30;99.90
15481;DHT22;7842;50.904;6.670;2022-12-18T08:44:03;-3.60;99.90
15481;DHT22;7842;50.904;6.670;2022-12-18T08:46:48;-3.60;99.90
15481;DHT22;7842;50.904;6.670;2022-12-18T08:49:13;-3.50;99.90
15481;DHT22;7842;50.904;6.670;2022-12-18T08:51:39;-3.40;99.90
15481;DHT22;7842;50.904;6.670;2022-12-18T08:54:06;-3.40;99.90
15481;DHT22;7842;50.904;6.670;2022-12-18T08:56:32;-2.90;99.90
15481;DHT22;7842;50.904;6.670;2022-12-18T08:58:58;-3.30;99.90
15481;DHT22;7842;50.904;6.670;2022-12-18T09:01:24;-3.20;99.90
15481;DHT22;7842;50.904;6.670;2022-12-18T09:03:50;-3.20;99.90
15481;DHT22;7842;50.904;6.670;2022-12-18T09:06:21;-3.20;99.90
15481;DHT22;7842;50.904;6.670;2022-12-18T09:08:47;-3.10;99.90
15481;DHT22;7842;50.904;6.670;2022-12-18T09:11:21;-3.10;99.90
15481;DHT22;7842;50.904;6.670;2022-12-18T09:13:47;-3.10;99.90
15481;DHT22;7842;50.904;6.670;2022-12-18T09:16:13;-3.00;99.90
15481;DHT22;7842;50.904;6.670;2022-12-18T09:18:38;-3.00;99.90
15481;DHT22;7842;50.904;6.670;2022-12-18T09:21:08;-3.00;99.90
15481;DHT22;7842;50.904;6.670;2022-12-18T09:23:34;-2.90;99.90
15481;DHT22;7842;50.904;6.670;2022-12-18T09:26:00;-2.80;99.90
15481;DHT22;7842;50.904;6.670;2022-12-18T09:28:25;-2.80;99.90
15481;DHT22;7842;50.904;6.670;2022-12-18T09:30:51;-2.70;99.90
15481;DHT22;7842;50.904;6.670;2022-12-18T09:33:17;-2.70;99.90
15481;DHT22;7842;50.904;6.670;2022-12-18T09:35:44;-2.60;99.90
15481;DHT22;7842;50.904;6.670;2022-12-18T09:38:13;-2.60;99.90
15481;DHT22;7842;50.904;6.670;2022-12-18T09:40:53;-2.70;99.90
15481;DHT22;7842;50.904;6.670;2022-12-18T09:43:40;-2.60;99.90
15481;DHT22;7842;50.904;6.670;2022-12-18T09:46:10;-2.60;99.90
15481;DHT22;7842;50.904;6.670;2022-12-18T09:48:47;-2.50;99.90
15481;DHT22;7842;50.904;6.670;2022-12-18T09:51:37;-2.50;99.90
15481;DHT22;7842;50.904;6.670;2022-12-18T09:54:18;-2.50;99.90
15481;DHT22;7842;50.904;6.670;2022-12-18T09:56:45;-2.50;99.90
15481;DHT22;7842;50.904;6.670;2022-12-18T09:59:24;-2.50;99.90
15481;DHT22;7842;50.904;6.670;2022-12-18T10:01:53;-2.50;99.90
15481;DHT22;7842;50.904;6.670;2022-12-18T10:04:19;-2.40;99.90
15481;DHT22;7842;50.904;6.670;2022-12-18T10:06:57;-2.30;99.90
15481;DHT22;7842;50.904;6.670;2022-12-18T10:09:42;-2.30;99.90
15481;DHT22;7842;50.904;6.670;2022-12-18T10:15:00;-2.20;99.90
15481;DHT22;7842;50.904;6.670;2022-12-18T10:17:58;-2.20;99.90
15481;DHT22;7842;50.904;6.670;2022-12-18T10:23:33;-2.00;99.90
15481;DHT22;7842;50.904;6.670;2022-12-18T10:26:20;-1.90;99.90
15481;DHT22;7842;50.904;6.670;2022-12-18T10:28:46;-1.90;99.90
15481;DHT22;7842;50.904;6.670;2022-12-18T10:31:17;-1.80;99.90
15481;DHT22;7842;50.904;6.670;2022-12-18T10:33:43;-1.80;99.90
15481;DHT22;7842;50.904;6.670;2022-12-18T10:36:09;-1.80;99.90
15481;DHT22;7842;50.904;6.670;2022-12-18T10:38:35;-1.70;99.90
15481;DHT22;7842;50.904;6.670;2022-12-18T10:43:31;-1.60;99.90
15481;DHT22;7842;50.904;6.670;2022-12-18T10:46:17;-1.60;99.90
15481;DHT22;7842;50.904;6.670;2022-12-18T10:51:34;-1.50;99.90
15481;DHT22;7842;50.904;6.670;2022-12-18T10:54:02;-1.50;99.90
15481;DHT22;7842;50.904;6.670;2022-12-18T10:56:31;-1.50;99.90
15481;DHT22;7842;50.904;6.670;2022-12-18T10:59:03;-1.50;99.90
15481;DHT22;7842;50.904;6.670;2022-12-18T11:01:52;-1.50;99.90
15481;DHT22;7842;50.904;6.670;2022-12-18T11:04:22;-1.50;99.90
15481;DHT22;7842;50.904;6.670;2022-12-18T11:06:54;-1.40;99.90
15481;DHT22;7842;50.904;6.670;2022-12-18T11:09:22;-1.40;99.90
15481;DHT22;7842;50.904;6.670;2022-12-18T11:11:56;-1.40;99.90
15481;DHT22;7842;50.904;6.670;2022-12-18T11:14:25;-1.40;99.90
15481;DHT22;7842;50.904;6.670;2022-12-18T11:16:52;-1.40;99.90
15481;DHT22;7842;50.904;6.670;2022-12-18T11:19:38;-1.40;99.90
15481;DHT22;7842;50.904;6.670;2022-12-18T11:22:40;-1.40;99.90
15481;DHT22;7842;50.904;6.670;2022-12-18T11:27:38;-1.40;99.90
15481;DHT22;7842;50.904;6.670;2022-12-18T11:30:24;-1.40;99.90
15481;DHT22;7842;50.904;6.670;2022-12-18T11:32:56;-1.40;99.90
15481;DHT22;7842;50.904;6.670;2022-12-18T11:38:35;-1.30;99.90
15481;DHT22;7842;50.904;6.670;2022-12-18T11:43:54;-1.30;99.90
15481;DHT22;7842;50.904;6.670;2022-12-18T11:46:37;-1.30;99.90
15481;DHT22;7842;50.904;6.670;2022-12-18T11:49:09;-1.30;99.90
15481;DHT22;7842;50.904;6.670;2022-12-18T11:51:54;-1.20;99.90
15481;DHT22;7842;50.904;6.670;2022-12-18T11:54:21;-1.20;99.90
15481;DHT22;7842;50.904;6.670;2022-12-18T11:56:51;-1.20;99.90
15481;DHT22;7842;50.904;6.670;2022-12-18T12:07:40;-1.20;99.90
15481;DHT22;7842;50.904;6.670;2022-12-18T12:18:08;-1.10;99.90
15481;DHT22;7842;50.904;6.670;2022-12-18T12:20:59;-1.10;99.90
15481;DHT22;7842;50.904;6.670;2022-12-18T12:26:42;-1.00;99.90
15481;DHT22;7842;50.904;6.670;2022-12-18T12:32:25;-1.00;99.90
15481;DHT22;7842;50.904;6.670;2022-12-18T12:37:59;-1.10;99.90
15481;DHT22;7842;50.904;6.670;2022-12-18T12:40:27;-1.10;99.90
15481;DHT22;7842;50.904;6.670;2022-12-18T12:43:07;-1.10;99.90
15481;DHT22;7842;50.904;6.670;2022-12-18T12:51:15;-1.10;99.90
15481;DHT22;7842;50.904;6.670;2022-12-18T12:53:42;-1.10;99.90
15481;DHT22;7842;50.904;6.670;2022-12-18T12:56:10;-1.00;99.90
15481;DHT22;7842;50.904;6.670;2022-12-18T13:04:29;-1.00;99.90
15481;DHT22;7842;50.904;6.670;2022-12-18T13:07:15;-1.00;99.90
15481;DHT22;7842;50.904;6.670;2022-12-18T13:13:07;-1.00;99.90
15481;DHT22;7842;50.904;6.670;2022-12-18T13:15:39;-1.00;99.90
15481;DHT22;7842;50.904;6.670;2022-12-18T13:20:40;-1.10;99.90
15481;DHT22;7842;50.904;6.670;2022-12-18T13:25:51;-1.10;99.90
15481;DHT22;7842;50.904;6.670;2022-12-18T13:30:58;-1.10;99.90
15481;DHT22;7842;50.904;6.670;2022-12-18T13:33:40;-1.10;99.90
15481;DHT22;7842;50.904;6.670;2022-12-18T13:36:26;-1.10;99.90
15481;DHT22;7842;50.904;6.670;2022-12-18T13:39:32;-1.10;99.90
15481;DHT22;7842;50.904;6.670;2022-12-18T13:44:37;-1.20;99.90
15481;DHT22;7842;50.904;6.670;2022-12-18T13:47:27;-1.10;99.90
15481;DHT22;7842;50.904;6.670;2022-12-18T13:49:56;-1.10;99.90
15481;DHT22;7842;50.904;6.670;2022-12-18T13:52:25;-1.10;99.90
15481;DHT22;7842;50.904;6.670;2022-12-18T13:54:54;-0.90;99.90
15481;DHT22;7842;50.904;6.670;2022-12-18T13:57:34;-1.10;99.90
15481;DHT22;7842;50.904;6.670;2022-12-18T14:02:54;-1.10;99.90
15481;DHT22;7842;50.904;6.670;2022-12-18T14:05:36;-1.20;99.90
15481;DHT22;7842;50.904;6.670;2022-12-18T14:08:08;-1.20;99.90
15481;DHT22;7842;50.904;6.670;2022-12-18T14:10:35;-1.20;99.90
15481;DHT22;7842;50.904;6.670;2022-12-18T14:13:06;-1.10;99.90
15481;DHT22;7842;50.904;6.670;2022-12-18T14:15:40;-1.10;99.90
15481;DHT22;7842;50.904;6.670;2022-12-18T14:18:19;-1.10;99.90
15481;DHT22;7842;50.904;6.670;2022-12-18T14:20:47;-1.10;99.90
15481;DHT22;7842;50.904;6.670;2022-12-18T14:26:20;-1.10;99.90
15481;DHT22;7842;50.904;6.670;2022-12-18T14:28:46;-1.10;99.90
15481;DHT22;7842;50.904;6.670;2022-12-18T14:31:20;-1.10;99.90
15481;DHT22;7842;50.904;6.670;2022-12-18T14:33:46;-1.20;99.90
15481;DHT22;7842;50.904;6.670;2022-12-18T14:36:16;-1.20;99.90
15481;DHT22;7842;50.904;6.670;2022-12-18T14:38:42;-1.20;99.90
15481;DHT22;7842;50.904;6.670;2022-12-18T14:41:16;-1.20;99.90
15481;DHT22;7842;50.904;6.670;2022-12-18T14:43:43;-1.20;99.90
15481;DHT22;7842;50.904;6.670;2022-12-18T14:46:32;-1.20;99.90
15481;DHT22;7842;50.904;6.670;2022-12-18T14:49:16;-1.20;99.90
15481;DHT22;7842;50.904;6.670;2022-12-18T14:51:49;-1.30;99.90
15481;DHT22;7842;50.904;6.670;2022-12-18T14:54:18;-1.30;99.90
15481;DHT22;7842;50.904;6.670;2022-12-18T14:59:38;-1.30;99.90
15481;DHT22;7842;50.904;6.670;2022-12-18T15:04:48;-1.30;99.90
15481;DHT22;7842;50.904;6.670;2022-12-18T15:07:24;-1.30;99.90
15481;DHT22;7842;50.904;6.670;2022-12-18T15:12:36;-1.30;99.90
15481;DHT22;7842;50.904;6.670;2022-12-18T15:15:03;-1.30;99.90
15481;DHT22;7842;50.904;6.670;2022-12-18T15:17:29;-1.40;99.90
15481;DHT22;7842;50.904;6.670;2022-12-18T15:20:01;-1.30;99.90
15481;DHT22;7842;50.904;6.670;2022-12-18T15:22:30;-1.40;99.90
15481;DHT22;7842;50.904;6.670;2022-12-18T15:24:58;-1.40;99.90
15481;DHT22;7842;50.904;6.670;2022-12-18T15:27:33;-1.40;99.90
15481;DHT22;7842;50.904;6.670;2022-12-18T15:32:36;-1.40;99.90
15481;DHT22;7842;50.904;6.670;2022-12-18T15:37:56;-1.40;99.90
15481;DHT22;7842;50.904;6.670;2022-12-18T15:40:23;-1.40;99.90
15481;DHT22;7842;50.904;6.670;2022-12-18T15:42:52;-1.40;99.90
15481;DHT22;7842;50.904;6.670;2022-12-18T15:45:37;-1.40;99.90
15481;DHT22;7842;50.904;6.670;2022-12-18T15:48:17;-1.50;99.90
15481;DHT22;7842;50.904;6.670;2022-12-18T15:50:44;-1.50;99.90
15481;DHT22;7842;50.904;6.670;2022-12-18T15:53:09;-1.50;99.90
15481;DHT22;7842;50.904;6.670;2022-12-18T15:55:35;-1.40;99.90
15481;DHT22;7842;50.904;6.670;2022-12-18T15:58:19;-1.40;99.90
15481;DHT22;7842;50.904;6.670;2022-12-18T16:00:46;-1.40;99.90
15481;DHT22;7842;50.904;6.670;2022-12-18T16:03:11;-1.20;99.90
15481;DHT22;7842;50.904;6.670;2022-12-18T16:05:37;-1.40;99.90
15481;DHT22;7842;50.904;6.670;2022-12-18T16:08:02;-1.40;99.90
15481;DHT22;7842;50.904;6.670;2022-12-18T16:10:28;-1.40;99.90
15481;DHT22;7842;50.904;6.670;2022-12-18T16:12:54;-1.40;99.90
15481;DHT22;7842;50.904;6.670;2022-12-18T16:15:19;-1.40;99.90
15481;DHT22;7842;50.904;6.670;2022-12-18T16:17:46;-1.40;99.90
15481;DHT22;7842;50.904;6.670;2022-12-18T16:20:16;-1.40;99.90
15481;DHT22;7842;50.904;6.670;2022-12-18T16:22:44;-1.40;99.90
15481;DHT22;7842;50.904;6.670;2022-12-18T16:25:28;-1.30;99.90
15481;DHT22;7842;50.904;6.670;2022-12-18T16:27:55;-1.30;99.90
15481;DHT22;7842;50.904;6.670;2022-12-18T16:30:26;-1.30;99.90
15481;DHT22;7842;50.904;6.670;2022-12-18T16:33:02;-1.30;99.90
15481;DHT22;7842;50.904;6.670;2022-12-18T16:35:29;-1.30;99.90
15481;DHT22;7842;50.904;6.670;2022-12-18T16:37:55;-1.30;99.90
15481;DHT22;7842;50.904;6.670;2022-12-18T16:40:20;-1.30;99.90
15481;DHT22;7842;50.904;6.670;2022-12-18T16:42:46;-1.30;99.90
15481;DHT22;7842;50.904;6.670;2022-12-18T16:45:16;-1.20;99.90
15481;DHT22;7842;50.904;6.670;2022-12-18T16:47:42;-1.20;99.90
15481;DHT22;7842;50.904;6.670;2022-12-18T16:50:09;-1.20;99.90
15481;DHT22;7842;50.904;6.670;2022-12-18T16:52:35;-1.20;99.90
15481;DHT22;7842;50.904;6.670;2022-12-18T16:55:01;-1.20;99.90
15481;DHT22;7842;50.904;6.670;2022-12-18T16:57:27;-1.20;99.90
15481;DHT22;7842;50.904;6.670;2022-12-18T16:59:53;-1.20;99.90
15481;DHT22;7842;50.904;6.670;2022-12-18T17:02:21;-1.20;99.90
15481;DHT22;7842;50.904;6.670;2022-12-18T17:04:48;-1.20;99.90
15481;DHT22;7842;50.904;6.670;2022-12-18T17:07:14;-1.20;99.90
15481;DHT22;7842;50.904;6.670;2022-12-18T17:09:40;-1.20;99.90
15481;DHT22;7842;50.904;6.670;2022-12-18T17:12:07;-1.20;99.90
15481;DHT22;7842;50.904;6.670;2022-12-18T17:14:33;-1.20;99.90
15481;DHT22;7842;50.904;6.670;2022-12-18T17:16:59;-1.00;99.90
15481;DHT22;7842;50.904;6.670;2022-12-18T17:19:26;-1.20;99.90
15481;DHT22;7842;50.904;6.670;2022-12-18T17:21:52;-1.20;99.90
15481;DHT22;7842;50.904;6.670;2022-12-18T17:24:17;-1.20;99.90
15481;DHT22;7842;50.904;6.670;2022-12-18T17:26:44;-1.20;99.90
15481;DHT22;7842;50.904;6.670;2022-12-18T17:29:15;-1.30;99.90
15481;DHT22;7842;50.904;6.670;2022-12-18T17:31:41;-1.30;99.90
15481;DHT22;7842;50.904;6.670;2022-12-18T17:34:09;-1.30;99.90
15481;DHT22;7842;50.904;6.670;2022-12-18T17:36:35;-1.30;99.90
15481;DHT22;7842;50.904;6.670;2022-12-18T17:39:02;-1.30;99.90
15481;DHT22;7842;50.904;6.670;2022-12-18T17:41:29;-1.30;99.90
15481;DHT22;7842;50.904;6.670;2022-12-18T17:44:03;-1.30;99.90
15481;DHT22;7842;50.904;6.670;2022-12-18T17:46:31;-1.30;99.90
15481;DHT22;7842;50.904;6.670;2022-12-18T17:48:59;-1.20;99.90
15481;DHT22;7842;50.904;6.670;2022-12-18T17:51:25;-1.30;99.90
15481;DHT22;7842;50.904;6.670;2022-12-18T17:53:51;-1.30;99.90
15481;DHT22;7842;50.904;6.670;2022-12-18T17:56:18;-1.30;99.90